createdAt,value
2018-07-10T00:00:09.039Z,17.30
2018-07-10T00:03:51.290Z,17.40
2018-07-10T00:06:30.140Z,17.30
2018-07-10T00:09:09.746Z,17.30
2018-07-10T00:11:37.410Z,17.30
2018-07-10T00:14:05.461Z,17.20
2018-07-10T00:16:33.503Z,17.20
2018-07-10T00:19:01.394Z,17.30
2018-07-10T00:21:28.967Z,17.20
2018-07-10T00:23:56.577Z,17.20
2018-07-10T00:26:24.416Z,17.30
2018-07-10T00:28:52.695Z,17.30
2018-07-10T00:31:20.600Z,17.30
2018-07-10T00:33:48.843Z,17.30
2018-07-10T00:36:16.884Z,17.30
2018-07-10T00:38:56.298Z,17.30
2018-07-10T00:41:32.045Z,17.20
2018-07-10T00:44:01.242Z,17.20
2018-07-10T00:46:30.736Z,17.20
2018-07-10T00:48:58.375Z,17.20
2018-07-10T00:51:26.488Z,17.20
2018-07-10T00:53:54.127Z,17.10
2018-07-10T00:56:21.738Z,17.10
2018-07-10T00:58:50.895Z,17.10
2018-07-10T01:01:19.578Z,17.10
2018-07-10T01:03:47.388Z,17.00
2018-07-10T01:06:15.050Z,17.00
2018-07-10T01:08:42.722Z,17.00
2018-07-10T01:11:13.428Z,17.00
2018-07-10T01:13:42.386Z,17.00
2018-07-10T01:16:11.097Z,17.10
2018-07-10T01:18:41.466Z,17.10
2018-07-10T01:21:11.319Z,17.10
2018-07-10T01:23:39.742Z,17.10
2018-07-10T01:26:08.921Z,17.20
2018-07-10T01:28:37.552Z,17.10
2018-07-10T01:31:05.157Z,17.10
2018-07-10T01:33:32.754Z,17.10
2018-07-10T01:36:03.605Z,17.20
2018-07-10T01:38:31.911Z,17.10
2018-07-10T01:40:59.842Z,17.10
2018-07-10T01:45:55.846Z,17.10
2018-07-10T01:48:23.480Z,17.10
2018-07-10T01:50:51.188Z,17.10
2018-07-10T01:53:20.103Z,17.10
2018-07-10T01:55:47.649Z,17.10
2018-07-10T01:58:15.396Z,17.10
2018-07-10T02:00:44.769Z,17.10
2018-07-10T02:03:12.878Z,17.10
2018-07-10T02:05:41.439Z,17.20
2018-07-10T02:08:09.161Z,17.20
2018-07-10T02:10:37.264Z,17.30
2018-07-10T02:13:05.286Z,17.30
2018-07-10T02:15:33.401Z,17.20
2018-07-10T02:18:01.593Z,17.20
2018-07-10T02:20:36.830Z,17.20
2018-07-10T02:23:04.466Z,17.30
2018-07-10T02:25:32.420Z,17.30
2018-07-10T02:28:00.474Z,17.30
2018-07-10T02:30:28.455Z,17.30
2018-07-10T02:32:55.973Z,17.30
2018-07-10T02:35:24.066Z,17.30
2018-07-10T02:42:47.472Z,17.30
2018-07-10T02:45:15.426Z,17.30
2018-07-10T02:47:43.024Z,17.40
2018-07-10T02:50:10.631Z,17.30
2018-07-10T02:52:40.368Z,17.30
2018-07-10T02:55:08.170Z,17.30
2018-07-10T02:57:36.049Z,17.30
2018-07-10T03:00:04.503Z,17.30
2018-07-10T03:02:32.937Z,17.30
2018-07-10T03:05:03.608Z,17.30
2018-07-10T03:07:36.386Z,17.30
2018-07-10T03:10:04.040Z,17.40
2018-07-10T03:12:33.010Z,17.30
2018-07-10T03:15:05.069Z,17.30
2018-07-10T03:17:33.356Z,17.30
2018-07-10T03:20:02.568Z,17.30
2018-07-10T03:22:31.022Z,17.30
2018-07-10T03:24:58.623Z,17.20
2018-07-10T03:27:26.526Z,17.30
2018-07-10T03:29:54.370Z,17.20
2018-07-10T03:32:21.997Z,17.20
2018-07-10T03:34:50.163Z,17.30
2018-07-10T03:37:17.748Z,17.20
2018-07-10T03:39:46.501Z,17.20
2018-07-10T03:42:14.098Z,17.20
2018-07-10T03:44:44.585Z,17.20
2018-07-10T03:47:15.494Z,17.20
2018-07-10T03:49:44.010Z,17.20
2018-07-10T03:52:13.400Z,17.20
2018-07-10T03:54:42.044Z,17.20
2018-07-10T03:57:11.583Z,17.30
2018-07-10T03:59:50.171Z,17.20
2018-07-10T04:02:18.389Z,17.30
2018-07-10T04:04:47.234Z,17.20
2018-07-10T04:07:15.213Z,17.20
2018-07-10T04:09:42.846Z,17.20
2018-07-10T04:12:10.800Z,17.20
2018-07-10T04:14:40.361Z,17.20
2018-07-10T04:17:09.216Z,17.20
2018-07-10T04:19:37.492Z,17.30
2018-07-10T04:22:05.041Z,17.30
2018-07-10T04:24:32.626Z,17.20
2018-07-10T04:27:07.703Z,17.30
2018-07-10T04:29:43.055Z,17.30
2018-07-10T04:32:13.079Z,17.40
2018-07-10T04:34:41.346Z,17.40
2018-07-10T04:37:13.210Z,17.40
2018-07-10T04:39:43.026Z,17.50
2018-07-10T04:42:21.420Z,17.50
2018-07-10T04:45:09.778Z,17.50
2018-07-10T04:47:43.829Z,17.60
2018-07-10T04:50:39.861Z,17.60
2018-07-10T04:54:16.842Z,17.60
2018-07-10T04:56:49.000Z,17.60
2018-07-10T04:59:16.601Z,17.70
2018-07-10T05:01:45.313Z,17.70
2018-07-10T05:04:13.442Z,17.80
2018-07-10T05:06:41.022Z,17.80
2018-07-10T05:09:08.629Z,17.80
2018-07-10T05:11:41.529Z,17.90
2018-07-10T05:14:09.589Z,17.90
2018-07-10T05:16:37.554Z,18.00
2018-07-10T05:19:05.594Z,18.10
2018-07-10T05:21:34.255Z,18.10
2018-07-10T05:24:01.861Z,18.20
2018-07-10T05:26:29.467Z,18.40
2018-07-10T05:28:57.614Z,18.60
2018-07-10T05:31:25.136Z,18.90
2018-07-10T05:33:53.834Z,19.00
2018-07-10T05:36:22.979Z,19.20
2018-07-10T05:38:55.495Z,19.40
2018-07-10T05:41:23.132Z,19.60
2018-07-10T05:43:52.802Z,19.70
2018-07-10T05:46:22.327Z,19.80
2018-07-10T05:48:59.923Z,19.80
2018-07-10T05:51:31.305Z,19.80
2018-07-10T05:54:02.949Z,19.70
2018-07-10T06:03:18.581Z,19.60
2018-07-10T06:08:14.083Z,19.50
2018-07-10T06:10:41.879Z,19.60
2018-07-10T06:13:09.477Z,19.70
2018-07-10T06:15:37.973Z,19.70
2018-07-10T06:18:06.531Z,19.70
2018-07-10T06:20:34.239Z,19.70
2018-07-10T06:23:02.666Z,19.70
2018-07-10T06:25:34.112Z,19.80
2018-07-10T06:28:11.644Z,19.80
2018-07-10T06:30:39.591Z,19.90
2018-07-10T06:33:23.077Z,20.00
2018-07-10T06:36:00.306Z,20.10
2018-07-10T06:38:28.167Z,20.20
2018-07-10T06:40:55.786Z,20.50
2018-07-10T06:43:30.409Z,20.60
2018-07-10T06:45:57.991Z,20.70
2018-07-10T06:48:26.259Z,20.90
2018-07-10T06:50:54.033Z,21.00
2018-07-10T06:53:24.559Z,21.30
2018-07-10T06:55:54.339Z,21.50
2018-07-10T06:58:23.535Z,21.60
2018-07-10T07:00:54.474Z,21.60
2018-07-10T07:03:24.239Z,21.70
2018-07-10T07:05:52.303Z,21.80
2018-07-10T07:08:20.831Z,21.90
2018-07-10T07:10:48.727Z,22.10
2018-07-10T07:15:44.034Z,22.50
2018-07-10T07:18:12.011Z,22.60
2018-07-10T07:20:40.467Z,22.60
2018-07-10T07:23:08.011Z,22.70
2018-07-10T07:25:35.535Z,22.70
2018-07-10T07:28:03.927Z,22.70
2018-07-10T07:30:32.746Z,22.60
2018-07-10T07:33:00.297Z,22.50
2018-07-10T07:35:28.591Z,22.50
2018-07-10T07:37:56.194Z,22.40
2018-07-10T07:40:23.741Z,22.40
2018-07-10T07:42:51.674Z,22.40
2018-07-10T07:45:19.949Z,22.40
2018-07-10T07:47:48.522Z,22.40
2018-07-10T07:50:16.122Z,22.40
2018-07-10T07:52:43.746Z,22.30
2018-07-10T07:55:12.826Z,22.40
2018-07-10T07:57:40.939Z,22.50
2018-07-10T08:00:09.121Z,22.40
2018-07-10T08:02:37.057Z,22.40
2018-07-10T08:05:04.667Z,22.40
2018-07-10T08:07:32.263Z,22.30
2018-07-10T08:09:59.922Z,22.20
2018-07-10T08:12:29.314Z,22.10
2018-07-10T08:14:58.962Z,22.00
2018-07-10T08:17:27.082Z,22.10
2018-07-10T08:22:24.631Z,22.00
2018-07-10T08:24:52.822Z,22.10
2018-07-10T08:27:22.569Z,22.10
2018-07-10T08:29:50.205Z,22.10
2018-07-10T08:32:17.775Z,22.20
2018-07-10T08:34:46.795Z,22.20
2018-07-10T08:37:14.415Z,22.40
2018-07-10T08:39:42.559Z,22.40
2018-07-10T08:42:10.719Z,22.50
2018-07-10T08:44:38.690Z,22.60
2018-07-10T08:47:08.291Z,22.40
2018-07-10T08:49:37.768Z,22.20
2018-07-10T08:52:07.946Z,22.20
2018-07-10T08:54:36.745Z,22.20
2018-07-10T08:57:04.440Z,22.20
2018-07-10T08:59:33.173Z,22.30
2018-07-10T09:02:02.429Z,22.30
2018-07-10T09:04:30.698Z,22.20
2018-07-10T09:06:58.628Z,22.30
2018-07-10T09:09:26.271Z,22.40
2018-07-10T09:11:53.897Z,22.60
2018-07-10T09:14:21.529Z,22.60
2018-07-10T09:16:49.238Z,22.70
2018-07-10T09:19:20.447Z,22.60
2018-07-10T09:21:51.339Z,22.60
2018-07-10T09:24:20.085Z,22.80
2018-07-10T09:26:50.218Z,22.80
2018-07-10T09:29:18.540Z,22.90
2018-07-10T09:31:46.098Z,22.80
2018-07-10T09:34:15.455Z,23.00
2018-07-10T09:39:11.335Z,22.80
2018-07-10T09:41:38.968Z,23.10
2018-07-10T09:44:07.051Z,23.30
2018-07-10T09:46:35.007Z,23.30
2018-07-10T09:49:02.938Z,23.50
2018-07-10T09:51:30.895Z,23.80
2018-07-10T09:53:58.527Z,24.20
2018-07-10T09:56:26.501Z,24.20
2018-07-10T09:58:55.858Z,24.20
2018-07-10T10:01:27.186Z,24.20
2018-07-10T10:03:55.694Z,24.30
2018-07-10T10:06:24.079Z,24.40
2018-07-10T10:08:52.533Z,24.50
2018-07-10T10:11:20.824Z,24.60
2018-07-10T10:13:48.802Z,24.90
2018-07-10T10:16:17.367Z,24.60
2018-07-10T10:21:14.840Z,24.60
2018-07-10T10:23:43.731Z,24.50
2018-07-10T10:26:13.187Z,24.30
2018-07-10T10:28:41.064Z,24.20
2018-07-10T10:31:09.727Z,24.10
2018-07-10T10:33:37.331Z,24.00
2018-07-10T10:36:05.238Z,24.30
2018-07-10T10:38:34.991Z,24.60
2018-07-10T10:41:02.969Z,24.60
2018-07-10T10:43:31.106Z,24.50
2018-07-10T10:45:59.098Z,24.20
2018-07-10T10:48:27.274Z,24.10
2018-07-10T10:50:54.976Z,24.20
2018-07-10T10:53:23.613Z,24.10
2018-07-10T10:55:51.166Z,24.10
2018-07-10T10:58:19.814Z,24.00
2018-07-10T11:00:48.454Z,23.70
2018-07-10T11:05:44.010Z,24.10
2018-07-10T11:08:11.756Z,24.00
2018-07-10T11:10:39.367Z,24.00
2018-07-10T11:13:07.132Z,24.20
2018-07-10T11:15:41.085Z,24.40
2018-07-10T11:18:11.463Z,24.60
2018-07-10T11:21:02.061Z,24.70
2018-07-10T11:23:48.197Z,24.70
2018-07-10T11:26:24.938Z,24.50
2018-07-10T11:28:53.268Z,24.60
2018-07-10T11:33:49.730Z,24.90
2018-07-10T11:36:17.463Z,24.80
2018-07-10T11:38:45.471Z,25.00
2018-07-10T11:41:13.383Z,24.70
2018-07-10T11:43:41.479Z,24.40
2018-07-10T11:46:09.599Z,24.60
2018-07-10T11:48:37.233Z,24.70
2018-07-10T11:51:05.452Z,24.50
2018-07-10T11:56:00.538Z,24.80
2018-07-10T11:58:28.156Z,24.70
2018-07-10T12:00:56.431Z,24.70
2018-07-10T12:03:24.063Z,24.40
2018-07-10T12:05:52.392Z,24.20
2018-07-10T12:08:20.111Z,23.70
2018-07-10T12:10:58.144Z,23.60
2018-07-10T12:13:25.783Z,23.10
2018-07-10T12:15:53.407Z,23.30
2018-07-10T12:18:21.691Z,23.40
2018-07-10T12:20:50.078Z,23.20
2018-07-10T12:23:17.674Z,22.90
2018-07-10T12:25:45.711Z,22.90
2018-07-10T12:28:14.624Z,22.80
2018-07-10T12:30:42.265Z,22.70
2018-07-10T12:33:10.008Z,22.70
2018-07-10T12:35:38.382Z,22.60
2018-07-10T12:38:06.419Z,22.50
2018-07-10T12:40:34.442Z,22.40
2018-07-10T12:43:03.083Z,22.10
2018-07-10T12:45:30.980Z,21.90
2018-07-10T12:47:59.011Z,21.80
2018-07-10T12:50:27.726Z,21.50
2018-07-10T12:52:56.138Z,21.40
2018-07-10T12:55:26.024Z,21.30
2018-07-10T12:57:54.189Z,21.10
2018-07-10T13:00:23.107Z,20.70
2018-07-10T13:02:53.077Z,20.20
2018-07-10T13:05:22.824Z,20.00
2018-07-10T13:07:50.445Z,19.60
2018-07-10T13:10:18.100Z,19.30
2018-07-10T13:12:46.208Z,18.90
2018-07-10T13:15:14.387Z,18.60
2018-07-10T13:17:44.243Z,18.20
2018-07-10T13:20:12.591Z,18.10
2018-07-10T13:22:40.568Z,17.80
2018-07-10T13:25:08.168Z,17.70
2018-07-10T13:27:35.778Z,17.50
2018-07-10T13:32:30.907Z,17.30
2018-07-10T13:34:59.320Z,17.30
2018-07-10T13:37:28.523Z,17.40
2018-07-10T13:40:00.908Z,17.50
2018-07-10T13:42:53.707Z,17.60
2018-07-10T13:45:23.513Z,17.60
2018-07-10T13:47:51.587Z,17.60
2018-07-10T13:50:22.190Z,17.70
2018-07-10T13:52:50.246Z,17.80
2018-07-10T13:55:18.571Z,18.00
2018-07-10T13:58:51.454Z,18.10
2018-07-10T14:01:20.952Z,18.30
2018-07-10T14:03:48.720Z,18.50
2018-07-10T14:06:16.355Z,18.70
2018-07-10T14:08:44.008Z,18.90
2018-07-10T14:11:12.304Z,19.20
2018-07-10T14:13:40.368Z,19.60
2018-07-10T14:16:08.024Z,20.00
2018-07-10T14:18:37.472Z,20.90
2018-07-10T14:21:06.328Z,20.80
2018-07-10T14:23:34.089Z,20.90
2018-07-10T14:26:03.580Z,21.10
2018-07-10T14:28:31.731Z,21.30
2018-07-10T14:31:00.312Z,22.00
2018-07-10T14:33:28.760Z,21.90
2018-07-10T14:35:56.681Z,21.80
2018-07-10T14:38:26.720Z,22.80
2018-07-10T14:40:55.432Z,23.60
2018-07-10T14:43:26.398Z,24.30
2018-07-10T14:46:02.403Z,24.50
2018-07-10T14:48:33.503Z,23.70
2018-07-10T14:53:29.227Z,22.60
2018-07-10T14:55:57.595Z,22.20
2018-07-10T14:58:25.247Z,22.00
2018-07-10T15:00:53.410Z,22.00
2018-07-10T15:03:21.727Z,22.00
2018-07-10T15:05:49.745Z,21.90
2018-07-10T15:08:17.323Z,21.70
2018-07-10T15:10:45.218Z,21.60
2018-07-10T15:13:12.906Z,21.40
2018-07-10T15:15:40.475Z,21.40
2018-07-10T15:18:15.390Z,21.30
2018-07-10T15:20:43.210Z,21.30
2018-07-10T15:23:10.778Z,21.30
2018-07-10T15:25:38.346Z,21.20
2018-07-10T15:28:05.919Z,21.10
2018-07-10T15:33:02.247Z,20.90
2018-07-10T15:35:30.344Z,20.80
2018-07-10T15:37:58.953Z,20.90
2018-07-10T15:40:26.581Z,20.80
2018-07-10T15:42:54.618Z,20.70
2018-07-10T15:45:22.514Z,20.60
2018-07-10T15:47:50.568Z,20.50
2018-07-10T15:50:18.132Z,20.40
2018-07-10T15:52:45.736Z,20.40
2018-07-10T15:57:41.233Z,20.40
2018-07-10T16:00:08.805Z,20.50
2018-07-10T16:02:37.344Z,20.70
2018-07-10T16:05:06.228Z,20.90
2018-07-10T16:07:34.704Z,20.80
2018-07-10T16:12:29.903Z,20.60
2018-07-10T16:14:57.576Z,20.40
2018-07-10T16:17:26.724Z,20.20
2018-07-10T16:20:02.912Z,20.10
2018-07-10T16:22:32.021Z,19.90
2018-07-10T16:25:06.701Z,19.90
2018-07-10T16:27:40.104Z,19.80
2018-07-10T16:30:07.736Z,19.70
2018-07-10T16:32:38.956Z,19.70
2018-07-10T16:35:08.346Z,19.70
2018-07-10T16:37:36.180Z,19.60
2018-07-10T16:42:39.063Z,19.70
2018-07-10T16:45:08.304Z,19.90
2018-07-10T16:47:43.810Z,20.10
2018-07-10T16:50:12.801Z,20.50
2018-07-10T16:52:53.070Z,20.60
2018-07-10T16:55:20.735Z,20.90
2018-07-10T16:57:48.360Z,20.80
2018-07-10T17:00:17.030Z,20.70
2018-07-10T17:02:45.660Z,21.20
2018-07-10T17:05:14.928Z,21.60
2018-07-10T17:07:42.540Z,22.00
2018-07-10T17:10:11.092Z,22.00
2018-07-10T17:12:38.677Z,22.10
2018-07-10T17:15:06.456Z,22.20
2018-07-10T17:17:35.574Z,22.50
2018-07-10T17:20:04.541Z,22.60
2018-07-10T17:22:32.089Z,22.20
2018-07-10T17:25:00.380Z,21.90
2018-07-10T17:27:31.442Z,21.40
2018-07-10T17:30:00.031Z,21.00
2018-07-10T17:32:28.228Z,20.50
2018-07-10T17:34:56.662Z,20.10
2018-07-10T17:37:24.394Z,20.00
2018-07-10T17:42:21.135Z,19.80
2018-07-10T17:44:49.610Z,19.70
2018-07-10T17:47:17.269Z,19.40
2018-07-10T17:49:45.312Z,19.20
2018-07-10T17:52:13.214Z,19.10
2018-07-10T17:54:40.862Z,19.00
2018-07-10T17:57:08.552Z,19.00
2018-07-10T17:59:36.624Z,19.00
2018-07-10T18:02:04.837Z,19.10
2018-07-10T18:04:32.844Z,19.10
2018-07-10T18:07:01.503Z,19.10
2018-07-10T18:09:29.311Z,19.00
2018-07-10T18:11:57.758Z,18.90
2018-07-10T18:14:25.706Z,18.80
2018-07-10T18:16:54.498Z,18.70
2018-07-10T18:19:23.786Z,18.80
2018-07-10T18:21:51.836Z,18.80
2018-07-10T18:24:20.543Z,18.70
2018-07-10T18:26:49.053Z,18.50
2018-07-10T18:29:17.706Z,18.60
2018-07-10T18:31:46.083Z,18.40
2018-07-10T18:34:15.051Z,18.50
2018-07-10T18:39:11.442Z,18.30
2018-07-10T18:41:40.378Z,18.30
2018-07-10T18:44:09.558Z,18.30
2018-07-10T18:46:38.723Z,18.30
2018-07-10T18:49:06.511Z,18.20
2018-07-10T18:51:35.484Z,18.20
2018-07-10T18:54:03.897Z,18.10
2018-07-10T18:56:32.268Z,18.10
2018-07-10T18:59:12.196Z,18.00
2018-07-10T19:02:19.418Z,18.00
2018-07-10T19:05:07.842Z,18.00
2018-07-10T19:07:38.168Z,17.90
2018-07-10T19:10:06.612Z,17.80
2018-07-10T19:12:35.247Z,17.80
2018-07-10T19:15:03.957Z,17.70
2018-07-10T19:17:33.541Z,17.60
2018-07-10T19:20:10.866Z,17.60
2018-07-10T19:22:50.107Z,17.60
2018-07-10T19:25:18.314Z,17.60
2018-07-10T19:27:50.237Z,17.60
2018-07-10T19:30:20.463Z,17.50
2018-07-10T19:35:18.629Z,17.60
2018-07-10T19:37:46.768Z,17.60
2018-07-10T19:42:43.711Z,17.50
2018-07-10T19:45:13.136Z,17.50
2018-07-10T19:47:41.473Z,17.60
2018-07-10T19:50:18.142Z,17.50
2018-07-10T19:52:53.923Z,17.50
2018-07-10T19:55:24.954Z,17.60
2018-07-10T19:59:05.052Z,17.60
2018-07-10T20:01:46.375Z,17.60
2018-07-10T20:04:21.322Z,17.60
2018-07-10T20:06:58.101Z,17.60
2018-07-10T20:09:29.354Z,17.60
2018-07-10T20:12:05.685Z,17.60
2018-07-10T20:14:48.085Z,17.60
2018-07-10T20:17:17.712Z,17.50
2018-07-10T20:19:57.333Z,17.60
2018-07-10T20:23:31.332Z,17.50
2018-07-10T20:26:40.163Z,17.50
2018-07-10T20:29:23.605Z,17.50
2018-07-10T20:32:00.276Z,17.40
2018-07-10T20:35:36.898Z,17.30
2018-07-10T20:38:04.538Z,17.20
2018-07-10T20:40:35.780Z,17.20
2018-07-10T20:43:10.099Z,17.30
2018-07-10T20:45:39.717Z,17.20
2018-07-10T20:48:08.178Z,17.20
2018-07-10T20:50:54.032Z,17.20
2018-07-10T20:53:32.824Z,17.20
2018-07-10T20:56:11.952Z,17.20
2018-07-10T20:58:47.912Z,17.20
2018-07-10T21:01:15.787Z,17.10
2018-07-10T21:06:36.455Z,17.10
2018-07-10T21:09:08.170Z,17.20
2018-07-10T21:11:48.122Z,17.20
2018-07-10T21:14:26.915Z,17.10
2018-07-10T21:17:00.817Z,17.10
2018-07-10T21:21:49.491Z,17.10
2018-07-10T21:24:21.837Z,17.10
2018-07-10T21:27:23.705Z,16.90
2018-07-10T21:30:32.256Z,16.80
2018-07-10T21:33:38.574Z,16.80
2018-07-10T21:36:13.570Z,16.60
2018-07-10T21:38:46.469Z,16.50
2018-07-10T21:41:38.962Z,16.40
2018-07-10T21:44:19.104Z,16.30
2018-07-10T21:46:51.511Z,16.30
2018-07-10T21:49:40.328Z,16.10
2018-07-10T21:52:07.906Z,16.10
2018-07-10T21:54:36.695Z,16.00
2018-07-10T21:57:04.303Z,16.00
2018-07-10T21:59:34.482Z,15.90
2018-07-10T22:02:08.659Z,15.90
2018-07-10T22:04:37.441Z,15.90
2018-07-10T22:07:11.293Z,16.00
2018-07-10T22:09:40.052Z,16.00
2018-07-10T22:14:36.605Z,16.00
2018-07-10T22:19:38.692Z,16.20
2018-07-10T22:22:06.276Z,16.10
2018-07-10T22:24:34.004Z,16.00
2018-07-10T22:27:02.723Z,16.10
2018-07-10T22:29:36.117Z,16.00
2018-07-10T22:32:10.645Z,16.00
2018-07-10T22:34:41.885Z,16.00
2018-07-10T22:37:09.896Z,16.00
2018-07-10T22:39:38.053Z,15.90
2018-07-10T22:44:37.463Z,16.00
2018-07-10T22:47:05.527Z,16.10
2018-07-10T22:49:33.437Z,16.00
2018-07-10T22:52:02.780Z,16.10
2018-07-10T22:54:32.677Z,16.10
2018-07-10T22:57:00.275Z,16.10
2018-07-10T22:59:28.735Z,16.10
2018-07-10T23:01:56.912Z,16.00
2018-07-10T23:04:24.512Z,16.00
2018-07-10T23:06:52.122Z,16.10
2018-07-10T23:09:20.488Z,16.10
2018-07-10T23:11:48.093Z,16.10
2018-07-10T23:14:15.970Z,16.00
2018-07-10T23:16:45.324Z,16.00
2018-07-10T23:19:13.498Z,16.00
2018-07-10T23:21:41.258Z,16.00
2018-07-10T23:24:09.778Z,16.00
2018-07-10T23:26:39.731Z,16.00
2018-07-10T23:29:07.350Z,16.00
2018-07-10T23:31:34.976Z,16.00
2018-07-10T23:34:12.460Z,16.00
2018-07-10T23:36:40.049Z,16.00
2018-07-10T23:39:09.927Z,16.00
2018-07-10T23:42:00.653Z,16.10
2018-07-10T23:44:31.110Z,16.10
2018-07-10T23:47:06.082Z,16.00
2018-07-10T23:49:34.034Z,16.00
2018-07-10T23:52:12.953Z,16.00
2018-07-10T23:54:40.561Z,16.10
2018-07-10T23:57:08.202Z,16.10
2018-07-10T23:59:36.245Z,16.10
